This is the latest recevied weather packets stored in our database for station/object DK6OC-10. If no packets are shown the sender has not sent any weather packets the latest 10 day(s).
| Time | Temp. | Humidity | Pressure | Rain* | Wind** | Luminosity | Snow |
|---|---|---|---|---|---|---|---|
| 1777591844 | 20.56° C | 22% | 1021.9 hPa | - | - | - | - |
| 1777590044 | 21.11° C | 22% | 1022 hPa | - | - | - | - |
| 1777588244 | 21.11° C | 21% | 1022 hPa | - | - | - | - |
| 1777586444 | 21.11° C | 21% | 1022 hPa | - | - | - | - |
| 1777584643 | 21.67° C | 21% | 1022.1 hPa | - | - | - | - |
| 1777582843 | 21.67° C | 21% | 1022 hPa | - | - | - | - |
| 1777581043 | 21.67° C | 21% | 1021.8 hPa | - | - | - | - |
| 1777579243 | 22.22° C | 20% | 1021.5 hPa | - | - | - | - |
| 1777577443 | 22.78° C | 19% | 1021.3 hPa | - | - | - | - |
| 1777575643 | 23.33° C | 18% | 1021 hPa | - | - | - | - |
| 1777573843 | 23.89° C | 18% | 1020.9 hPa | - | - | - | - |
| 1777572043 | 25° C | 17% | 1020.6 hPa | - | - | - | - |
| 1777570243 | 25° C | 16% | 1020.6 hPa | - | - | - | - |
| 1777568443 | 25° C | 17% | 1020.5 hPa | - | - | - | - |
| 1777566640 | 25.56° C | 15% | 1020.7 hPa | - | - | - | - |
| 1777564840 | 26.11° C | 15% | 1020.8 hPa | - | - | - | - |
| 1777563040 | 26.67° C | 15% | 1020.8 hPa | - | - | - | - |
| 1777561239 | 26.67° C | 14% | 1021.1 hPa | - | - | - | - |
| 1777559439 | 27.22° C | 13% | 1021.1 hPa | - | - | - | - |
| 1777557639 | 27.22° C | 13% | 1021.4 hPa | - | - | - | - |
| 1777555839 | 26.67° C | 13% | 1021.7 hPa | - | - | - | - |
| 1777554039 | 26.67° C | 13% | 1022 hPa | - | - | - | - |
| 1777552239 | 26.11° C | 13% | 1022.3 hPa | - | - | - | - |
| 1777550439 | 26.11° C | 13% | 1022.5 hPa | - | - | - | - |
| 1777548639 | 25° C | 16% | 1022.7 hPa | - | - | - | - |
* Rain since midnight (hover to see other rain measurements)
** Current wind speed in m/s (hover to see current wind gust speed)